createdAt,value
2018-11-25T00:01:54.328Z,20.20
2018-11-25T00:04:26.146Z,20.73
2018-11-25T00:06:58.676Z,21.07
2018-11-25T00:09:31.068Z,20.87
2018-11-25T00:12:02.713Z,20.90
2018-11-25T00:14:34.890Z,22.03
2018-11-25T00:17:06.175Z,22.40
2018-11-25T00:19:37.883Z,21.70
2018-11-25T00:22:08.830Z,21.80
2018-11-25T00:24:40.731Z,21.87
2018-11-25T00:27:12.469Z,20.10
2018-11-25T00:29:44.973Z,21.23
2018-11-25T00:32:15.564Z,21.53
2018-11-25T00:34:46.747Z,21.80
2018-11-25T00:37:16.716Z,21.80
2018-11-25T00:39:46.738Z,23.03
2018-11-25T00:42:16.791Z,22.17
2018-11-25T00:44:54.305Z,23.17
2018-11-25T00:47:25.076Z,22.73
2018-11-25T00:49:55.696Z,21.97
2018-11-25T00:52:28.406Z,23.30
2018-11-25T00:54:59.669Z,21.63
2018-11-25T00:57:31.495Z,20.73
2018-11-25T01:00:03.423Z,22.67
2018-11-25T01:02:34.245Z,22.70
2018-11-25T01:05:05.026Z,21.80
2018-11-25T01:07:35.130Z,23.33
2018-11-25T01:10:06.966Z,23.33
2018-11-25T01:12:38.969Z,24.37
2018-11-25T01:15:12.193Z,23.07
2018-11-25T01:17:43.447Z,22.30
2018-11-25T01:20:16.594Z,23.33
2018-11-25T01:22:46.691Z,23.07
2018-11-25T01:25:16.638Z,22.40
2018-11-25T01:27:46.692Z,22.67
2018-11-25T01:30:17.335Z,23.40
2018-11-25T01:32:48.832Z,22.73
2018-11-25T01:35:20.912Z,25.20
2018-11-25T01:37:53.226Z,23.50
2018-11-25T01:40:24.110Z,23.83
2018-11-25T01:42:55.608Z,23.93
2018-11-25T01:45:30.547Z,23.00
2018-11-25T01:48:00.528Z,23.57
2018-11-25T01:50:30.556Z,22.43
2018-11-25T01:53:00.641Z,23.77
2018-11-25T01:55:30.582Z,23.10
2018-11-25T01:58:00.664Z,23.90
2018-11-25T02:00:30.653Z,23.20
2018-11-25T02:06:06.471Z,23.57
2018-11-25T02:08:36.501Z,23.87
2018-11-25T02:11:06.454Z,23.30
2018-11-25T02:13:36.480Z,25.87
2018-11-25T02:16:06.586Z,24.90
2018-11-25T02:18:36.595Z,23.43
2018-11-25T02:21:06.641Z,23.90
2018-11-25T02:23:36.654Z,24.67
2018-11-25T02:26:06.901Z,25.00
2018-11-25T02:28:36.935Z,24.37
2018-11-25T02:31:06.944Z,24.40
2018-11-25T02:33:37.055Z,25.80
2018-11-25T02:36:07.155Z,25.93
2018-11-25T02:38:37.085Z,25.83
2018-11-25T02:41:07.134Z,25.10
2018-11-25T02:43:37.181Z,25.83
2018-11-25T02:46:07.217Z,26.53
2018-11-25T02:48:37.169Z,27.93
2018-11-25T02:51:07.201Z,26.80
2018-11-25T02:53:37.214Z,26.47
2018-11-25T02:56:07.190Z,27.37
2018-11-25T02:58:37.286Z,27.37
2018-11-25T03:01:08.792Z,27.43
2018-11-25T03:03:38.764Z,28.53
2018-11-25T03:06:08.783Z,28.17
2018-11-25T03:08:38.809Z,27.53
2018-11-25T03:11:08.794Z,28.20
2018-11-25T03:13:38.835Z,28.47
2018-11-25T03:16:08.820Z,27.10
2018-11-25T03:18:38.865Z,28.40
2018-11-25T03:21:08.868Z,26.67
2018-11-25T03:23:38.855Z,26.90
2018-11-25T03:26:08.475Z,27.40
2018-11-25T03:28:38.542Z,26.47
2018-11-25T03:31:08.600Z,27.07
2018-11-25T03:33:38.659Z,24.73
2018-11-25T03:36:08.602Z,25.00
2018-11-25T03:38:38.704Z,24.83
2018-11-25T03:41:08.708Z,24.13
2018-11-25T03:43:38.638Z,22.37
2018-11-25T03:46:09.206Z,24.07
2018-11-25T03:48:39.203Z,23.03
2018-11-25T03:51:09.154Z,23.97
2018-11-25T03:53:39.198Z,22.17
2018-11-25T03:56:09.162Z,23.00
2018-11-25T03:58:39.141Z,22.70
2018-11-25T04:01:09.172Z,21.97
2018-11-25T04:03:39.160Z,23.07
2018-11-25T04:06:09.151Z,21.83
2018-11-25T04:08:39.105Z,21.83
2018-11-25T04:11:09.093Z,21.30
2018-11-25T04:13:39.081Z,22.33
2018-11-25T04:16:09.040Z,21.77
2018-11-25T04:18:39.051Z,20.07
2018-11-25T04:21:09.009Z,20.23
2018-11-25T04:23:38.969Z,21.73
2018-11-25T04:26:08.961Z,21.37
2018-11-25T04:28:39.108Z,21.63
2018-11-25T04:31:09.079Z,21.37
2018-11-25T04:33:39.081Z,19.60
2018-11-25T04:36:08.980Z,19.23
2018-11-25T04:38:39.014Z,19.23
2018-11-25T04:41:09.112Z,20.43
2018-11-25T04:43:39.113Z,17.97
2018-11-25T04:46:09.140Z,19.93
2018-11-25T04:48:39.081Z,19.57
2018-11-25T04:51:09.094Z,20.93
2018-11-25T04:53:38.999Z,19.57
2018-11-25T04:56:09.036Z,20.10
2018-11-25T04:58:39.006Z,19.27
2018-11-25T05:01:26.408Z,19.93
2018-11-25T05:03:56.404Z,18.50
2018-11-25T05:06:26.471Z,19.40
2018-11-25T05:08:56.508Z,19.53
2018-11-25T05:11:26.502Z,18.50
2018-11-25T05:13:56.411Z,18.33
2018-11-25T05:16:26.408Z,18.83
2018-11-25T05:18:56.464Z,18.50
2018-11-25T05:21:26.446Z,17.93
2018-11-25T05:24:00.781Z,18.43
2018-11-25T05:26:30.871Z,18.13
2018-11-25T05:29:00.884Z,17.53
2018-11-25T05:31:30.858Z,17.07
2018-11-25T05:34:01.015Z,17.87
2018-11-25T05:36:31.119Z,17.57
2018-11-25T05:39:01.244Z,17.30
2018-11-25T05:41:31.345Z,17.10
2018-11-25T05:44:01.595Z,16.43
2018-11-25T05:46:51.553Z,17.63
2018-11-25T05:49:21.672Z,16.90
2018-11-25T05:51:51.715Z,18.27
2018-11-25T05:54:21.732Z,16.90
2018-11-25T05:57:02.937Z,16.37
2018-11-25T05:59:38.762Z,16.23
2018-11-25T06:02:08.957Z,16.77
2018-11-25T06:04:39.107Z,16.10
2018-11-25T06:07:09.218Z,15.43
2018-11-25T06:09:39.332Z,14.67
2018-11-25T06:12:09.490Z,16.20
2018-11-25T06:14:48.918Z,15.40
2018-11-25T06:17:18.929Z,15.67
2018-11-25T06:19:48.901Z,14.60
2018-11-25T06:22:18.842Z,15.00
2018-11-25T06:24:48.903Z,15.73
2018-11-25T06:27:18.993Z,15.73
2018-11-25T06:29:49.024Z,14.63
2018-11-25T06:32:19.031Z,16.40
2018-11-25T06:34:49.111Z,14.73
2018-11-25T06:37:19.090Z,14.83
2018-11-25T06:39:49.014Z,15.60
2018-11-25T06:42:19.215Z,15.23
2018-11-25T06:44:49.191Z,15.63
2018-11-25T06:47:19.205Z,15.37
2018-11-25T06:50:07.227Z,15.33
2018-11-25T06:52:38.070Z,15.47
2018-11-25T06:55:09.812Z,14.40
2018-11-25T06:57:40.834Z,15.10
2018-11-25T07:00:15.785Z,14.97
2018-11-25T07:02:46.586Z,15.50
2018-11-25T07:05:18.555Z,14.07
2018-11-25T07:07:48.981Z,16.83
2018-11-25T07:10:21.882Z,16.30
2018-11-25T07:12:53.550Z,15.93
2018-11-25T07:15:23.614Z,15.70
2018-11-25T07:17:53.756Z,16.00
2018-11-25T07:20:23.956Z,15.27
2018-11-25T07:22:54.280Z,14.00
2018-11-25T07:25:24.499Z,14.30
2018-11-25T07:27:54.535Z,15.20
2018-11-25T07:30:31.146Z,14.87
2018-11-25T07:33:20.991Z,14.50
2018-11-25T07:35:51.237Z,14.90
2018-11-25T07:38:21.491Z,15.00
2018-11-25T07:40:51.630Z,13.23
2018-11-25T07:43:22.339Z,14.73
2018-11-25T07:45:52.365Z,14.93
2018-11-25T07:48:23.348Z,14.83
2018-11-25T07:50:53.324Z,14.70
2018-11-25T07:53:23.400Z,14.23
2018-11-25T07:55:53.356Z,14.37
2018-11-25T07:58:23.448Z,14.80
2018-11-25T08:00:53.446Z,14.67
2018-11-25T08:03:23.527Z,14.33
2018-11-25T08:05:53.580Z,14.23
2018-11-25T08:08:23.918Z,14.23
2018-11-25T08:10:54.087Z,13.97
2018-11-25T08:13:24.063Z,14.87
2018-11-25T08:15:54.083Z,14.33
2018-11-25T08:18:24.080Z,14.37
2018-11-25T08:20:54.099Z,13.50
2018-11-25T08:23:24.173Z,13.30
2018-11-25T08:25:54.227Z,13.87
2018-11-25T08:28:24.190Z,13.60
2018-11-25T08:30:54.276Z,13.83
2018-11-25T08:33:24.342Z,12.93
2018-11-25T08:35:54.307Z,13.33
2018-11-25T08:38:24.404Z,12.20
2018-11-25T08:40:54.421Z,13.53
2018-11-25T08:43:24.450Z,13.00
2018-11-25T08:45:54.509Z,12.40
2018-11-25T08:48:24.507Z,13.10
2018-11-25T08:50:54.685Z,12.70
2018-11-25T08:53:24.756Z,12.13
2018-11-25T08:55:54.747Z,13.93
2018-11-25T08:58:24.700Z,13.07
2018-11-25T09:00:54.730Z,12.90
2018-11-25T09:03:24.706Z,13.23
2018-11-25T09:05:54.626Z,13.53
2018-11-25T09:08:24.626Z,12.77
2018-11-25T09:10:54.744Z,13.03
2018-11-25T09:13:24.755Z,12.03
2018-11-25T09:15:54.806Z,13.20
2018-11-25T09:18:24.997Z,12.90
2018-11-25T09:20:54.905Z,13.20
2018-11-25T09:23:24.815Z,11.20
2018-11-25T09:25:54.756Z,13.13
2018-11-25T09:28:24.524Z,13.97
2018-11-25T09:30:54.526Z,14.67
2018-11-25T09:33:24.543Z,13.67
2018-11-25T09:35:54.560Z,13.13
2018-11-25T09:38:24.502Z,13.87
2018-11-25T09:40:59.158Z,13.90
2018-11-25T09:43:24.287Z,13.10
2018-11-25T09:45:54.245Z,12.43
2018-11-25T09:48:24.228Z,11.73
2018-11-25T09:50:54.148Z,12.07
2018-11-25T09:53:24.167Z,11.87
2018-11-25T09:55:54.388Z,12.10
2018-11-25T09:58:25.527Z,12.53
2018-11-25T10:00:54.411Z,11.83
2018-11-25T10:03:24.406Z,12.83
2018-11-25T10:05:54.516Z,12.77
2018-11-25T10:08:24.464Z,11.53
2018-11-25T10:10:54.574Z,11.40
2018-11-25T10:13:24.558Z,11.87
2018-11-25T10:15:54.555Z,12.50
2018-11-25T10:18:24.484Z,11.17
2018-11-25T10:20:54.522Z,10.50
2018-11-25T10:23:24.552Z,11.33
2018-11-25T10:25:54.501Z,10.77
2018-11-25T10:28:24.391Z,11.80
2018-11-25T10:30:54.321Z,11.97
2018-11-25T10:33:25.420Z,10.83
2018-11-25T10:35:55.375Z,10.47
2018-11-25T10:38:25.408Z,10.50
2018-11-25T10:40:55.481Z,10.87
2018-11-25T10:43:25.582Z,10.20
2018-11-25T10:45:55.539Z,9.40
2018-11-25T10:48:25.492Z,10.33
2018-11-25T10:50:55.434Z,9.00
2018-11-25T10:53:25.404Z,11.40
2018-11-25T10:55:55.508Z,10.37
2018-11-25T10:58:25.459Z,10.57
2018-11-25T11:00:55.956Z,9.43
2018-11-25T11:03:32.411Z,10.30
2018-11-25T11:06:07.350Z,9.60
2018-11-25T11:08:37.302Z,9.70
2018-11-25T11:11:07.357Z,9.97
2018-11-25T11:13:37.309Z,9.83
2018-11-25T11:16:07.447Z,9.63
2018-11-25T11:18:37.538Z,9.47
2018-11-25T11:21:07.502Z,9.53
2018-11-25T11:23:37.506Z,10.27
2018-11-25T11:26:12.021Z,9.80
2018-11-25T11:28:41.992Z,9.47
2018-11-25T11:31:13.487Z,9.60
2018-11-25T11:33:41.965Z,9.07
2018-11-25T11:36:13.141Z,8.90
2018-11-25T11:38:43.093Z,8.90
2018-11-25T11:41:13.057Z,9.17
2018-11-25T11:43:43.071Z,9.00
2018-11-25T11:46:13.055Z,8.90
2018-11-25T11:48:43.004Z,8.90
2018-11-25T11:51:13.007Z,8.63
2018-11-25T11:53:42.941Z,7.80
2018-11-25T11:56:12.920Z,8.43
2018-11-25T11:58:43.026Z,8.37
2018-11-25T12:01:13.015Z,8.70
2018-11-25T12:03:42.930Z,8.37
2018-11-25T12:06:12.989Z,8.60
2018-11-25T12:08:42.919Z,8.57
2018-11-25T12:11:12.944Z,8.77
2018-11-25T12:13:42.904Z,8.07
2018-11-25T12:16:12.812Z,8.13
2018-11-25T12:18:42.814Z,8.37
2018-11-25T12:21:12.735Z,8.53
2018-11-25T12:23:42.784Z,8.23
2018-11-25T12:26:12.801Z,7.77
2018-11-25T12:28:42.799Z,7.70
2018-11-25T12:31:13.666Z,7.67
2018-11-25T12:33:43.669Z,7.77
2018-11-25T12:36:13.645Z,7.90
2018-11-25T12:38:43.609Z,6.93
2018-11-25T12:41:13.605Z,7.40
2018-11-25T12:43:43.600Z,7.73
2018-11-25T12:46:13.583Z,7.77
2018-11-25T12:48:43.541Z,7.93
2018-11-25T12:51:13.501Z,7.50
2018-11-25T12:53:43.466Z,7.77
2018-11-25T12:56:13.533Z,7.73
2018-11-25T12:58:43.526Z,8.40
2018-11-25T13:01:13.564Z,7.90
2018-11-25T13:03:43.611Z,7.73
2018-11-25T13:06:13.688Z,8.03
2018-11-25T13:08:43.710Z,7.83
2018-11-25T13:11:13.635Z,7.43
2018-11-25T13:13:43.638Z,7.53
2018-11-25T13:16:13.642Z,8.00
2018-11-25T13:18:43.649Z,7.80
2018-11-25T13:21:13.614Z,8.40
2018-11-25T13:23:43.546Z,8.60
2018-11-25T13:26:13.540Z,7.97
2018-11-25T13:28:43.563Z,7.57
2018-11-25T13:31:13.565Z,7.63
2018-11-25T13:33:43.607Z,7.60
2018-11-25T13:36:13.644Z,6.97
2018-11-25T13:38:43.657Z,8.20
2018-11-25T13:41:13.675Z,7.20
2018-11-25T13:43:43.737Z,7.80
2018-11-25T13:46:13.779Z,7.43
2018-11-25T13:48:43.925Z,7.97
2018-11-25T13:51:13.879Z,8.20
2018-11-25T13:53:43.853Z,8.23
2018-11-25T13:56:13.874Z,9.03
2018-11-25T13:58:43.934Z,9.00
2018-11-25T14:01:13.990Z,9.37
2018-11-25T14:03:44.264Z,9.47
2018-11-25T14:06:15.262Z,9.73
2018-11-25T14:08:47.665Z,9.10
2018-11-25T14:11:17.639Z,9.50
2018-11-25T14:13:47.669Z,9.50
2018-11-25T14:16:20.045Z,9.43
2018-11-25T14:18:50.057Z,9.37
2018-11-25T14:21:20.038Z,9.20
2018-11-25T14:23:50.095Z,9.20
2018-11-25T14:26:23.426Z,9.20
2018-11-25T14:28:53.202Z,9.40
2018-11-25T14:31:23.324Z,10.00
2018-11-25T14:33:53.396Z,9.83
2018-11-25T14:36:23.660Z,9.90
2018-11-25T14:38:53.580Z,10.27
2018-11-25T14:41:23.488Z,9.80
2018-11-25T14:43:53.515Z,10.07
2018-11-25T14:46:23.586Z,10.20
2018-11-25T14:48:53.550Z,10.43
2018-11-25T14:51:23.586Z,10.17
2018-11-25T14:53:53.619Z,11.10
2018-11-25T14:56:23.617Z,10.90
2018-11-25T14:58:53.572Z,10.90
2018-11-25T15:01:23.505Z,10.13
2018-11-25T15:03:54.987Z,12.00
2018-11-25T15:06:29.206Z,11.67
2018-11-25T15:08:55.185Z,12.50
2018-11-25T15:11:25.128Z,11.40
2018-11-25T15:13:55.144Z,11.10
2018-11-25T15:16:25.155Z,12.43
2018-11-25T15:18:55.212Z,12.20
2018-11-25T15:21:25.242Z,11.30
2018-11-25T15:23:55.157Z,11.90
2018-11-25T15:26:25.157Z,12.57
2018-11-25T15:28:55.215Z,12.30
2018-11-25T15:31:25.214Z,12.57
2018-11-25T15:33:55.095Z,12.10
2018-11-25T15:36:25.162Z,11.90
2018-11-25T15:38:55.195Z,13.13
2018-11-25T15:41:25.194Z,12.10
2018-11-25T15:43:55.230Z,13.63
2018-11-25T15:46:25.218Z,12.73
2018-11-25T15:48:55.214Z,12.87
2018-11-25T15:51:25.347Z,12.83
2018-11-25T15:53:55.294Z,13.17
2018-11-25T15:56:25.338Z,13.93
2018-11-25T15:58:55.342Z,13.70
2018-11-25T16:01:25.342Z,13.10
2018-11-25T16:03:55.347Z,13.73
2018-11-25T16:06:28.168Z,15.80
2018-11-25T16:08:58.168Z,12.53
2018-11-25T16:11:28.265Z,11.50
2018-11-25T16:13:58.305Z,12.50
2018-11-25T16:16:28.355Z,12.00
2018-11-25T16:18:58.500Z,12.37
2018-11-25T16:21:28.510Z,12.87
2018-11-25T16:23:58.470Z,12.90
2018-11-25T16:26:30.793Z,12.97
2018-11-25T16:29:04.772Z,12.80
2018-11-25T16:31:34.657Z,12.00
2018-11-25T16:34:04.639Z,12.87
2018-11-25T16:36:34.724Z,12.33
2018-11-25T16:39:06.014Z,12.27
2018-11-25T16:41:36.095Z,13.00
2018-11-25T16:44:06.187Z,13.00
2018-11-25T16:46:36.321Z,12.83
2018-11-25T16:49:06.424Z,12.77
2018-11-25T16:51:36.349Z,13.80
2018-11-25T16:54:06.465Z,13.67
2018-11-25T16:56:36.474Z,12.83
2018-11-25T16:59:06.731Z,13.00
2018-11-25T17:01:36.676Z,13.73
2018-11-25T17:04:06.867Z,13.43
2018-11-25T17:06:38.151Z,13.70
2018-11-25T17:09:11.237Z,13.43
2018-11-25T17:11:41.233Z,13.47
2018-11-25T17:14:13.431Z,13.70
2018-11-25T17:16:44.266Z,13.40
2018-11-25T17:19:20.937Z,13.87
2018-11-25T17:21:54.210Z,12.63
2018-11-25T17:24:24.739Z,13.50
2018-11-25T17:26:54.812Z,12.87
2018-11-25T17:29:24.892Z,13.23
2018-11-25T17:31:55.173Z,12.47
2018-11-25T17:34:31.595Z,10.97
2018-11-25T17:37:01.734Z,11.20
2018-11-25T17:39:33.076Z,11.30
2018-11-25T17:42:03.766Z,10.43
2018-11-25T17:44:34.081Z,9.80
2018-11-25T17:47:04.225Z,9.77
2018-11-25T17:49:34.325Z,9.33
2018-11-25T17:52:04.520Z,8.90
2018-11-25T17:54:37.401Z,9.00
2018-11-25T17:57:07.886Z,9.00
2018-11-25T17:59:39.210Z,8.63
2018-11-25T18:05:10.114Z,7.67
2018-11-25T18:07:40.384Z,8.07
2018-11-25T18:10:14.938Z,8.20
2018-11-25T18:12:45.659Z,8.00
2018-11-25T18:15:18.184Z,8.87
2018-11-25T18:17:59.872Z,8.83
2018-11-25T18:26:49.733Z,8.90
2018-11-25T18:29:20.785Z,8.70
2018-11-25T18:37:41.436Z,8.00
2018-11-25T18:40:12.751Z,7.60
2018-11-25T18:42:43.512Z,8.03
2018-11-25T18:45:17.108Z,7.60
2018-11-25T18:47:49.551Z,7.30
2018-11-25T18:50:20.824Z,7.77
2018-11-25T18:52:52.297Z,7.50
2018-11-25T18:55:20.759Z,8.07
2018-11-25T18:57:50.743Z,8.47
2018-11-25T19:00:27.331Z,7.77
2018-11-25T19:02:57.679Z,7.60
2018-11-25T19:05:39.487Z,8.37
2018-11-25T19:08:19.665Z,9.27
2018-11-25T19:10:50.001Z,8.47
2018-11-25T19:13:23.188Z,9.70
2018-11-25T19:15:53.278Z,8.87
2018-11-25T19:18:23.298Z,9.00
2018-11-25T19:20:53.359Z,9.37
2018-11-25T19:23:23.350Z,8.70
2018-11-25T19:25:54.593Z,8.63
2018-11-25T19:28:24.914Z,8.27
2018-11-25T19:30:55.187Z,8.17
2018-11-25T19:33:26.022Z,7.50
2018-11-25T19:35:56.299Z,7.30
2018-11-25T19:38:26.354Z,7.37
2018-11-25T19:40:56.616Z,8.10
2018-11-25T19:43:26.571Z,7.47
2018-11-25T19:45:56.638Z,8.20
2018-11-25T19:48:27.621Z,8.17
2018-11-25T19:50:57.696Z,7.73
2018-11-25T19:53:27.840Z,7.77
2018-11-25T19:55:57.910Z,7.93
2018-11-25T19:58:27.944Z,7.97
2018-11-25T20:01:43.460Z,7.50
2018-11-25T20:04:13.963Z,8.10
2018-11-25T20:06:44.469Z,7.97
2018-11-25T20:09:15.628Z,7.57
2018-11-25T20:11:47.029Z,6.90
2018-11-25T20:14:17.469Z,7.83
2018-11-25T20:16:52.753Z,7.53
2018-11-25T20:19:23.532Z,7.53
2018-11-25T20:21:59.682Z,7.00
2018-11-25T20:24:30.766Z,7.90
2018-11-25T20:27:07.678Z,7.27
2018-11-25T20:29:40.705Z,7.77
2018-11-25T20:37:18.294Z,7.30
2018-11-25T20:39:50.231Z,6.93
2018-11-25T20:42:21.511Z,7.30
2018-11-25T20:44:52.920Z,7.57
2018-11-25T20:47:24.504Z,8.00
2018-11-25T20:49:55.369Z,7.90
2018-11-25T20:52:31.656Z,6.73
2018-11-25T20:55:02.877Z,7.10
2018-11-25T20:57:35.258Z,7.17
2018-11-25T21:00:09.788Z,7.20
2018-11-25T21:02:41.100Z,8.00
2018-11-25T21:05:16.657Z,7.53
2018-11-25T21:07:47.781Z,7.20
2018-11-25T21:10:20.708Z,7.50
2018-11-25T21:12:52.795Z,7.20
2018-11-25T21:15:24.006Z,7.73
2018-11-25T21:17:54.968Z,7.20
2018-11-25T21:20:26.737Z,8.60
2018-11-25T21:22:58.148Z,7.60
2018-11-25T21:25:29.044Z,7.90
2018-11-25T21:28:00.952Z,7.90
2018-11-25T21:30:31.751Z,7.93
2018-11-25T21:33:03.139Z,7.80
2018-11-25T21:35:34.418Z,8.00
2018-11-25T21:38:05.954Z,8.63
2018-11-25T21:40:39.116Z,8.30
2018-11-25T21:43:10.873Z,8.93
2018-11-25T21:45:42.529Z,8.60
2018-11-25T21:48:14.206Z,9.20
2018-11-25T21:50:46.216Z,9.00
2018-11-25T21:53:16.895Z,8.93
2018-11-25T21:58:19.273Z,9.27
2018-11-25T22:00:50.473Z,9.30
2018-11-25T22:03:22.458Z,8.77
2018-11-25T22:05:53.925Z,9.33
2018-11-25T22:08:26.128Z,9.50
2018-11-25T22:10:59.228Z,9.20
2018-11-25T22:13:31.301Z,8.90
2018-11-25T22:16:02.192Z,9.53
2018-11-25T22:18:34.702Z,9.20
2018-11-25T22:21:06.557Z,9.27
2018-11-25T22:23:38.281Z,9.43
2018-11-25T22:26:09.134Z,9.43
2018-11-25T22:28:41.716Z,8.93
2018-11-25T22:31:13.538Z,9.57
2018-11-25T22:33:45.075Z,9.20
2018-11-25T22:36:15.937Z,8.73
2018-11-25T22:38:47.453Z,9.53
2018-11-25T22:41:18.274Z,9.23
2018-11-25T22:43:49.233Z,9.90
2018-11-25T22:46:21.055Z,8.63
2018-11-25T22:48:52.015Z,9.40
2018-11-25T22:51:23.767Z,8.97
2018-11-25T22:53:55.127Z,10.00
2018-11-25T22:56:26.507Z,9.20
2018-11-25T22:58:57.991Z,8.87
2018-11-25T23:01:28.761Z,9.27
2018-11-25T23:04:10.943Z,9.07
2018-11-25T23:06:56.953Z,9.27
2018-11-25T23:09:27.754Z,9.57
2018-11-25T23:11:59.174Z,9.83
2018-11-25T23:14:30.539Z,9.23
2018-11-25T23:17:02.349Z,9.30
2018-11-25T23:19:34.619Z,9.70
2018-11-25T23:22:05.954Z,10.27
2018-11-25T23:24:36.568Z,9.87
2018-11-25T23:27:07.249Z,10.70
2018-11-25T23:29:37.911Z,10.40
2018-11-25T23:32:08.552Z,9.70
2018-11-25T23:34:39.213Z,9.47
2018-11-25T23:37:09.762Z,9.53
2018-11-25T23:39:40.476Z,8.90
2018-11-25T23:42:11.966Z,9.40
2018-11-25T23:44:42.556Z,9.03
2018-11-25T23:47:13.314Z,8.90
2018-11-25T23:52:23.919Z,9.20
2018-11-25T23:54:54.937Z,9.37
2018-11-25T23:57:26.239Z,9.47
2018-11-25T23:59:57.120Z,9.60
